Time;durP1;ratioP1;P1;durP2;ratioP2;P2;SDS_P1;SDS_P2;PMS_P1;PMS_P2;Temp;Humidity;BMP_temperature;BMP_pressure;BME280_temperature;BME280_humidity;BME280_pressure;Samples;Min_cycle;Max_cycle;Signal;HPM_P1;HPM_P2
2021/09/13 00:01:29;;;;;;;5.72;5.15;;;14.80;99.90;;;;;;6125541;23;20029;-89
2021/09/13 00:04:19;;;;;;;8.02;6.05;;;14.90;99.90;;;;;;6124668;23;20030;-90
2021/09/13 00:07:08;;;;;;;7.97;6.28;;;14.90;99.90;;;;;;6125261;23;20030;-90
2021/09/13 00:09:57;;;;;;;8.43;5.65;;;14.90;99.90;;;;;;6128177;23;20065;-89
2021/09/13 00:12:44;;;;;;;8.93;6.05;;;14.90;99.90;;;;;;6125079;23;20033;-91
2021/09/13 00:15:34;;;;;;;12.10;6.63;;;15.00;99.90;;;;;;6126128;23;20040;-91
2021/09/13 00:18:39;;;;;;;8.57;6.28;;;15.00;99.90;;;;;;6098701;23;20023;-90
2021/09/13 00:21:27;;;;;;;9.80;6.00;;;14.90;99.90;;;;;;6067644;23;20014;-90
2021/09/13 00:24:14;;;;;;;7.95;6.28;;;14.80;99.90;;;;;;6087458;23;20030;-92
2021/09/13 00:27:04;;;;;;;8.07;5.68;;;14.80;99.90;;;;;;6097370;23;20042;-90
2021/09/13 00:29:51;;;;;;;10.40;6.00;;;14.80;99.90;;;;;;6096069;23;20018;-90
2021/09/13 00:32:40;;;;;;;6.95;6.25;;;14.80;99.90;;;;;;6096442;23;20493;-90
2021/09/13 00:35:29;;;;;;;10.23;5.97;;;14.70;99.90;;;;;;6076132;23;20041;-89
2021/09/13 00:38:16;;;;;;;7.53;5.47;;;14.70;99.90;;;;;;6096038;23;20022;-90
2021/09/13 00:41:04;;;;;;;8.50;6.10;;;14.70;99.90;;;;;;6095502;23;20061;-92
2021/09/13 00:43:52;;;;;;;13.90;6.10;;;14.70;99.90;;;;;;6095696;23;20034;-87
2021/09/13 00:46:40;;;;;;;6.72;6.03;;;14.70;99.90;;;;;;6095495;23;20038;-89
2021/09/13 00:49:29;;;;;;;7.13;5.90;;;14.60;99.90;;;;;;6113102;23;20337;-90
2021/09/13 00:52:18;;;;;;;8.75;6.18;;;14.60;99.90;;;;;;6124011;23;20747;-92
2021/09/13 00:55:06;;;;;;;7.60;5.50;;;14.60;99.90;;;;;;6127755;23;20093;-91
2021/09/13 00:57:54;;;;;;;12.57;6.57;;;14.60;99.90;;;;;;6127452;23;20110;-91
2021/09/13 01:00:50;;;;;;;8.50;5.85;;;14.50;99.90;;;;;;6127595;23;20030;-89
2021/09/13 01:03:37;;;;;;;11.60;6.85;;;14.40;99.90;;;;;;6124493;23;20040;-89
2021/09/13 01:06:25;;;;;;;8.30;7.43;;;14.30;99.90;;;;;;6127684;23;20223;-92
2021/09/13 01:09:12;;;;;;;8.30;7.07;;;14.30;99.90;;;;;;6127554;23;20416;-89
2021/09/13 01:12:00;;;;;;;13.10;7.38;;;14.30;99.90;;;;;;6125845;23;20022;-88
2021/09/13 01:14:47;;;;;;;8.65;7.60;;;14.30;99.90;;;;;;6127592;23;20033;-88
2021/09/13 01:17:36;;;;;;;9.00;7.03;;;14.30;99.90;;;;;;6127334;23;20129;-88
2021/09/13 01:20:24;;;;;;;9.90;6.60;;;14.40;99.90;;;;;;6125678;23;20029;-89
2021/09/13 01:23:29;;;;;;;8.00;6.90;;;14.50;99.90;;;;;;6125913;23;20452;-89
2021/09/13 01:26:17;;;;;;;7.60;6.20;;;14.60;99.90;;;;;;6127566;23;20041;-89
2021/09/13 01:29:04;;;;;;;9.50;7.03;;;14.50;99.90;;;;;;6124947;23;20032;-90
2021/09/13 01:31:57;;;;;;;11.43;7.05;;;14.50;99.90;;;;;;6127296;23;20053;-91
2021/09/13 01:34:45;;;;;;;10.30;7.38;;;14.50;99.90;;;;;;6124667;23;20037;-90
2021/09/13 01:37:33;;;;;;;8.88;7.88;;;14.40;99.90;;;;;;6127489;23;20403;-89
2021/09/13 01:40:20;;;;;;;8.95;7.45;;;14.30;99.90;;;;;;6105614;23;20026;-88
2021/09/13 01:43:10;;;;;;;10.40;7.60;;;14.30;99.90;;;;;;6125496;23;20108;-90
2021/09/13 01:46:00;;;;;;;10.57;7.32;;;14.20;99.90;;;;;;6125751;23;20057;-89
2021/09/13 01:48:48;;;;;;;9.63;7.78;;;14.00;99.90;;;;;;6137430;23;20025;-91
2021/09/13 01:51:36;;;;;;;11.85;8.43;;;14.00;99.90;;;;;;6101400;23;20021;-91
2021/09/13 01:54:25;;;;;;;9.18;8.20;;;14.00;99.90;;;;;;6138318;23;20379;-91
2021/09/13 01:57:16;;;;;;;12.98;7.85;;;13.90;99.90;;;;;;6131022;23;20117;-89
2021/09/13 02:00:05;;;;;;;11.60;7.43;;;14.00;99.90;;;;;;6083920;23;20647;-90
2021/09/13 02:02:53;;;;;;;8.13;7.25;;;14.00;99.90;;;;;;6125099;23;20029;-90
2021/09/13 02:05:41;;;;;;;8.38;7.03;;;14.00;99.90;;;;;;6064939;23;20036;-92
2021/09/13 02:08:31;;;;;;;8.70;6.70;;;14.00;99.90;;;;;;6104165;23;20021;-90
2021/09/13 02:11:23;;;;;;;9.38;7.63;;;14.00;99.90;;;;;;6124651;23;20414;-90
2021/09/13 02:14:10;;;;;;;12.23;6.47;;;14.00;99.90;;;;;;6102254;23;20053;-91
2021/09/13 02:16:57;;;;;;;8.05;6.93;;;14.00;99.90;;;;;;6102862;23;20070;-90
2021/09/13 02:19:46;;;;;;;9.07;6.70;;;14.00;99.90;;;;;;6083330;23;20037;-89
2021/09/13 02:22:36;;;;;;;11.57;6.60;;;14.10;99.90;;;;;;6122761;23;20037;-89
2021/09/13 02:25:23;;;;;;;8.50;6.25;;;14.10;99.90;;;;;;6112610;23;20124;-90
2021/09/13 02:28:13;;;;;;;7.50;6.30;;;14.10;99.90;;;;;;6099901;23;20037;-89
2021/09/13 02:31:02;;;;;;;8.25;6.18;;;14.10;99.90;;;;;;6098889;23;20037;-90
2021/09/13 02:33:49;;;;;;;7.07;6.38;;;14.10;99.90;;;;;;6142233;23;20029;-90
2021/09/13 02:36:37;;;;;;;13.20;6.15;;;14.10;99.90;;;;;;6105208;23;20018;-91
2021/09/13 02:39:28;;;;;;;8.90;6.53;;;14.00;99.90;;;;;;6140791;23;20030;-90
2021/09/13 02:42:15;;;;;;;10.75;6.95;;;13.90;99.90;;;;;;6144079;23;20038;-89
2021/09/13 02:45:04;;;;;;;9.57;7.40;;;13.90;99.90;;;;;;6147824;23;20026;-89
2021/09/13 02:47:51;;;;;;;11.73;8.85;;;13.80;99.90;;;;;;6142969;23;20030;-90
2021/09/13 02:50:39;;;;;;;11.20;9.45;;;13.70;99.90;;;;;;6144083;23;20061;-89
2021/09/13 02:53:27;;;;;;;13.02;8.70;;;13.60;99.90;;;;;;6107683;23;20045;-90
2021/09/13 02:56:14;;;;;;;13.23;10.07;;;13.50;99.90;;;;;;6108983;23;20045;-89
2021/09/13 02:59:03;;;;;;;11.82;10.00;;;13.50;99.90;;;;;;6126983;23;20026;-90
2021/09/13 03:01:55;;;;;;;15.73;10.13;;;13.40;99.90;;;;;;6104289;23;20132;-90
2021/09/13 03:04:45;;;;;;;13.85;10.05;;;13.40;99.90;;;;;;6126812;23;20042;-90
2021/09/13 03:07:32;;;;;;;12.40;9.10;;;13.40;99.90;;;;;;6106548;23;20030;-90
2021/09/13 03:10:19;;;;;;;10.40;8.13;;;13.30;99.90;;;;;;6126158;23;20120;-90
2021/09/13 03:13:06;;;;;;;9.05;8.02;;;13.30;99.90;;;;;;6104982;23;20113;-91
2021/09/13 03:15:54;;;;;;;9.68;7.95;;;13.20;99.90;;;;;;6104256;23;20053;-91
2021/09/13 03:18:41;;;;;;;11.85;8.75;;;13.20;99.90;;;;;;6084416;23;20037;-89
2021/09/13 03:21:29;;;;;;;12.45;9.05;;;13.20;99.90;;;;;;6123853;23;20030;-91
2021/09/13 03:24:18;;;;;;;10.88;8.98;;;13.20;99.90;;;;;;6102380;23;20078;-90
2021/09/13 03:27:06;;;;;;;10.70;9.05;;;13.20;99.90;;;;;;6126550;23;20113;-90
2021/09/13 03:29:55;;;;;;;12.63;9.23;;;13.20;99.90;;;;;;6102108;23;20049;-90
2021/09/13 03:32:43;;;;;;;12.57;10.05;;;13.10;99.90;;;;;;6104501;23;20030;-89
2021/09/13 03:35:30;;;;;;;14.63;10.57;;;13.20;99.90;;;;;;6125522;23;20037;-91
2021/09/13 03:38:17;;;;;;;13.65;9.80;;;13.10;99.90;;;;;;6105094;23;20128;-89
2021/09/13 03:41:04;;;;;;;13.20;10.02;;;13.10;99.90;;;;;;6124435;23;20041;-91
2021/09/13 03:43:52;;;;;;;15.57;10.45;;;13.10;99.90;;;;;;6106178;23;20446;-90
2021/09/13 03:46:44;;;;;;;12.60;10.32;;;13.20;99.90;;;;;;6126488;23;20061;-92
2021/09/13 03:49:32;;;;;;;15.13;11.37;;;13.20;99.90;;;;;;6088066;23;20137;-89
2021/09/13 03:52:19;;;;;;;15.98;12.68;;;13.20;99.90;;;;;;6105387;23;20124;-92
2021/09/13 03:55:07;;;;;;;19.42;12.25;;;13.20;99.90;;;;;;6131238;23;20034;-91
2021/09/13 03:57:54;;;;;;;19.05;13.93;;;13.10;99.90;;;;;;6128256;23;20095;-90
2021/09/13 04:00:41;;;;;;;15.68;12.40;;;13.10;99.90;;;;;;6107518;23;20085;-88
2021/09/13 04:04:05;;;;;;;20.90;13.75;;;13.10;99.90;;;;;;6106830;23;20034;-91
2021/09/13 04:08:02;;;;;;;18.20;12.90;;;13.10;99.90;;;;;;6128024;23;20093;-92
2021/09/13 04:11:22;;;;;;;17.17;13.23;;;13.00;99.90;;;;;;6081797;23;20022;-92
2021/09/13 04:14:29;;;;;;;17.33;13.70;;;13.00;99.90;;;;;;6093738;23;20119;-91
2021/09/13 04:17:33;;;;;;;;;;;13.00;99.90;;;;;;6132171;23;20327;-91
2021/09/13 04:20:21;;;;;;;21.40;13.88;;;13.00;99.90;;;;;;6130976;23;19928;-90
2021/09/13 04:23:11;;;;;;;19.85;13.25;;;12.90;99.90;;;;;;6086920;23;20032;-91
2021/09/13 04:26:00;;;;;;;19.55;12.48;;;12.90;99.90;;;;;;6128439;23;20135;-90
2021/09/13 04:28:49;;;;;;;19.02;14.60;;;12.80;99.90;;;;;;6125671;23;20104;-89
2021/09/13 04:31:37;;;;;;;19.30;14.57;;;12.70;99.90;;;;;;6084623;23;20104;-91
2021/09/13 04:34:27;;;;;;;15.82;13.73;;;12.70;99.90;;;;;;6124762;23;20429;-91
2021/09/13 04:37:14;;;;;;;15.57;13.18;;;12.80;99.90;;;;;;6106939;23;20122;-90
2021/09/13 04:40:03;;;;;;;16.90;13.32;;;12.70;99.90;;;;;;6104652;23;20112;-91
2021/09/13 04:42:53;;;;;;;16.98;14.43;;;12.60;99.90;;;;;;6103402;23;20317;-91
2021/09/13 04:45:41;;;;;;;16.52;13.32;;;12.50;99.90;;;;;;6105103;23;20030;-88
2021/09/13 04:48:28;;;;;;;16.50;13.73;;;12.50;99.90;;;;;;6107515;23;20406;-90
2021/09/13 04:51:16;;;;;;;16.40;14.02;;;12.40;99.90;;;;;;6103888;23;20650;-88
2021/09/13 04:54:04;;;;;;;21.48;13.20;;;12.30;99.90;;;;;;6124907;23;20033;-89
2021/09/13 04:56:51;;;;;;;21.98;15.13;;;12.30;99.90;;;;;;6102723;23;20026;-87
2021/09/13 04:59:43;;;;;;;19.38;15.43;;;12.20;99.90;;;;;;6105375;23;20030;-93
2021/09/13 05:02:30;;;;;;;19.95;14.80;;;12.20;99.90;;;;;;6106811;23;20029;-90
2021/09/13 05:05:21;;;;;;;22.42;15.25;;;12.20;99.90;;;;;;6105940;23;20060;-90
2021/09/13 05:08:09;;;;;;;22.90;15.57;;;12.20;99.90;;;;;;6107535;23;20426;-91
2021/09/13 05:10:56;;;;;;;22.40;15.38;;;12.30;99.90;;;;;;6125868;23;20021;-90
2021/09/13 05:13:43;;;;;;;27.90;15.88;;;12.30;99.90;;;;;;6082926;23;20029;-92
2021/09/13 05:16:32;;;;;;;25.33;15.93;;;12.30;99.90;;;;;;6089346;23;20026;-90
2021/09/13 05:19:19;;;;;;;21.45;15.90;;;12.40;99.90;;;;;;6106592;23;20116;-89
2021/09/13 05:34:10;;;;;;;23.48;16.95;;;12.50;99.90;;;;;;5778763;24;20034;-91
2021/09/13 05:37:58;;;;;;;;;;;;;;;;;;;;;
2021/09/13 05:40:59;;;;;;;24.37;17.93;;;12.80;99.90;;;;;;5867959;23;20448;-86
2021/09/13 05:43:47;;;;;;;18.80;16.58;;;12.90;99.90;;;;;;6020758;23;20257;-86
2021/09/13 05:46:34;;;;;;;19.80;15.32;;;12.90;99.90;;;;;;6063941;23;20097;-85
2021/09/13 05:49:22;;;;;;;19.77;16.13;;;13.00;99.90;;;;;;6103450;23;20101;-88
2021/09/13 05:52:15;;;;;;;19.48;14.05;;;13.10;99.90;;;;;;6104234;23;20399;-86
2021/09/13 05:55:02;;;;;;;21.25;15.05;;;13.30;99.90;;;;;;6125632;23;20021;-87
2021/09/13 05:57:49;;;;;;;19.52;12.93;;;13.50;99.90;;;;;;6123959;23;20030;-88
2021/09/13 06:00:40;;;;;;;13.63;11.88;;;13.50;99.90;;;;;;6123957;23;20161;-85
2021/09/13 06:03:28;;;;;;;14.05;11.32;;;13.70;99.90;;;;;;6101942;23;20030;-85
2021/09/13 06:06:19;;;;;;;14.45;10.75;;;13.80;99.90;;;;;;6101698;23;20086;-87
2021/09/13 06:09:12;;;;;;;10.02;8.98;;;14.00;99.90;;;;;;6083775;23;20040;-88
2021/09/13 06:12:01;;;;;;;10.68;8.00;;;14.00;99.90;;;;;;6123462;23;20041;-89
2021/09/13 06:14:49;;;;;;;9.63;7.20;;;14.00;99.90;;;;;;6124414;23;20085;-87
2021/09/13 06:17:38;;;;;;;10.90;7.75;;;14.00;99.90;;;;;;6103976;23;20025;-85
2021/09/13 06:20:26;;;;;;;8.25;7.45;;;14.10;99.90;;;;;;6102356;23;20036;-87
2021/09/13 06:23:13;;;;;;;11.05;7.93;;;14.20;99.90;;;;;;6103407;23;20394;-86
2021/09/13 06:26:01;;;;;;;8.70;7.07;;;14.30;99.90;;;;;;6102137;23;20025;-88
2021/09/13 06:28:50;;;;;;;9.90;7.68;;;14.50;99.90;;;;;;6101872;23;20045;-88
2021/09/13 06:31:37;;;;;;;11.27;6.95;;;14.60;99.90;;;;;;6123798;23;20030;-87
2021/09/13 06:34:29;;;;;;;11.15;8.00;;;14.70;99.90;;;;;;6123260;23;20143;-87
2021/09/13 06:37:21;;;;;;;10.43;7.37;;;14.80;99.90;;;;;;6100184;23;20041;-87
2021/09/13 06:40:09;;;;;;;10.45;7.35;;;15.10;99.90;;;;;;6122596;23;20029;-89
2021/09/13 06:43:00;;;;;;;7.30;5.85;;;15.40;99.90;;;;;;6081434;23;20126;-88
2021/09/13 06:45:56;;;;;;;7.57;5.65;;;16.00;99.90;;;;;;6120883;23;20026;-87
2021/09/13 06:48:46;;;;;;;6.78;5.20;;;16.40;99.90;;;;;;6083623;23;20044;-87
2021/09/13 06:51:33;;;;;;;6.57;5.07;;;16.70;99.90;;;;;;6120970;23;20437;-88
2021/09/13 06:54:41;;;;;;;6.85;4.80;;;17.20;99.90;;;;;;6119086;23;20092;-87
2021/09/13 06:57:29;;;;;;;5.78;4.55;;;17.50;99.90;;;;;;6121983;23;20021;-88
2021/09/13 07:00:19;;;;;;;7.80;4.70;;;17.80;99.90;;;;;;6101007;23;20036;-88
2021/09/13 07:03:09;;;;;;;5.85;4.60;;;17.90;99.90;;;;;;6122073;23;20026;-88
2021/09/13 07:05:57;;;;;;;5.78;4.40;;;17.90;99.90;;;;;;6102163;23;20036;-88
2021/09/13 07:08:44;;;;;;;5.53;4.35;;;17.90;99.90;;;;;;6105141;23;20079;-86
2021/09/13 07:11:34;;;;;;;5.25;4.57;;;17.90;99.90;;;;;;6122165;23;20037;-87
2021/09/13 07:14:25;;;;;;;8.73;4.95;;;18.00;99.90;;;;;;6104642;23;20030;-87
2021/09/13 07:17:14;;;;;;;10.18;4.47;;;18.20;99.90;;;;;;6122173;23;20030;-87
2021/09/13 07:20:02;;;;;;;5.50;4.28;;;18.10;99.90;;;;;;6120898;23;20022;-87
2021/09/13 07:22:50;;;;;;;5.75;4.13;;;18.30;99.90;;;;;;6100296;23;20026;-85
2021/09/13 07:25:38;;;;;;;6.30;4.00;;;18.40;99.90;;;;;;6121888;23;20034;-86
2021/09/13 07:32:47;;;;;;;6.00;4.05;;;18.60;99.90;;;;;;6047692;23;20093;-90
2021/09/13 07:35:50;;;;;;;6.20;4.20;;;18.80;99.90;;;;;;6105824;23;20121;-90
2021/09/13 07:38:49;;;;;;;;;;;;;;;;;;;;;
2021/09/13 07:42:03;;;;;;;4.82;4.13;;;18.90;99.90;;;;;;6111379;23;20072;-90
2021/09/13 07:45:02;;;;;;;5.68;4.32;;;18.90;99.90;;;;;;6155571;23;20132;-91
2021/09/13 07:47:53;;;;;;;13.10;4.40;;;18.80;99.90;;;;;;6135454;23;20130;-92
2021/09/13 07:51:33;;;;;;;;;;;;;;;;;;;;;
2021/09/13 07:54:47;;;;;;;7.25;4.20;;;19.40;99.90;;;;;;6140151;23;20029;-90
2021/09/13 07:57:34;;;;;;;4.70;4.00;;;19.50;99.90;;;;;;6119680;23;20037;-92
2021/09/13 08:00:27;;;;;;;4.13;3.40;;;19.70;99.90;;;;;;6135161;23;20025;-91
2021/09/13 08:03:28;;;;;;;4.80;4.32;;;20.10;99.90;;;;;;6178882;23;20037;-89
2021/09/13 08:06:16;;;;;;;5.60;4.25;;;20.60;99.90;;;;;;6158870;23;20013;-91
2021/09/13 08:09:20;;;;;;;5.35;4.10;;;21.10;99.90;;;;;;6178213;23;20031;-89
2021/09/13 08:12:08;;;;;;;5.13;3.63;;;21.50;99.90;;;;;;6158507;23;20017;-91
2021/09/13 08:15:00;;;;;;;8.88;4.20;;;22.20;99.90;;;;;;6138911;23;20021;-91
2021/09/13 08:17:47;;;;;;;6.00;3.53;;;22.90;99.90;;;;;;6168123;23;20026;-91
2021/09/13 08:20:37;;;;;;;3.80;3.15;;;23.70;99.90;;;;;;6166515;23;20087;-91
2021/09/13 08:23:34;;;;;;;4.47;3.00;;;24.80;97.10;;;;;;6137709;23;20052;-93
2021/09/13 08:26:33;;;;;;;5.00;3.10;;;25.30;93.90;;;;;;6153090;23;20029;-94
2021/09/13 08:29:36;;;;;;;4.63;3.00;;;25.90;92.60;;;;;;6155808;23;20097;-91
2021/09/13 08:32:27;;;;;;;4.57;3.15;;;26.30;90.20;;;;;;6137231;23;20400;-93
2021/09/13 08:35:25;;;;;;;3.38;2.90;;;26.50;88.30;;;;;;6141048;23;20021;-92
2021/09/13 08:38:23;;;;;;;4.78;3.03;;;26.70;84.10;;;;;;6138067;23;20445;-88
2021/09/13 08:41:11;;;;;;;5.55;3.55;;;26.60;85.90;;;;;;6134348;23;20034;-89
2021/09/13 08:44:02;;;;;;;4.93;3.38;;;26.70;83.80;;;;;;6123401;23;20077;-89
2021/09/13 08:46:59;;;;;;;3.45;3.10;;;26.30;86.30;;;;;;6123867;23;20041;-88
2021/09/13 08:49:49;;;;;;;4.97;2.92;;;26.40;84.70;;;;;;6102707;23;20057;-89
2021/09/13 08:52:36;;;;;;;3.17;2.72;;;26.70;83.90;;;;;;6083118;23;20396;-91
2021/09/13 08:55:31;;;;;;;3.45;3.13;;;27.30;80.70;;;;;;6133907;23;20033;-91
2021/09/13 08:58:26;;;;;;;3.92;2.95;;;27.30;82.50;;;;;;6105277;23;20017;-90
2021/09/13 09:04:55;;;;;;;3.15;2.90;;;27.50;79.50;;;;;;5943524;24;20021;-90
2021/09/13 09:08:16;;;;;;;;;;;;;;;;;;;;;
2021/09/13 09:11:56;;;;;;;3.60;2.92;;;29.00;75.10;;;;;;5992723;23;20020;-90
2021/09/13 09:18:04;;;;;;;4.40;2.90;;;29.60;67.90;;;;;;5997912;23;20035;-91
2021/09/13 09:20:53;;;;;;;;;;;29.10;68.30;;;;;;5999222;23;20038;-91
2021/09/13 09:33:10;;;;;;;;;;;;;;;;;;;;;
2021/09/13 09:40:29;;;;;;;3.03;2.80;;;30.80;62.90;;;;;;5960609;23;20012;-91
2021/09/13 09:43:18;;;;;;;3.85;2.15;;;30.10;62.50;;;;;;5962871;23;20059;-89
2021/09/13 09:46:11;;;;;;;6.75;2.92;;;30.40;64.40;;;;;;6131873;23;20036;-89
2021/09/13 09:49:03;;;;;;;3.15;2.63;;;30.50;62.90;;;;;;6154403;23;20029;-90
2021/09/13 09:51:55;;;;;;;3.42;3.13;;;30.50;62.50;;;;;;6134890;23;20099;-87
2021/09/13 09:54:43;;;;;;;4.20;2.47;;;30.60;62.50;;;;;;6134671;23;20037;-89
2021/09/13 09:57:31;;;;;;;2.30;2.10;;;30.30;63.10;;;;;;6112358;23;20022;-88
2021/09/13 10:00:22;;;;;;;2.97;2.45;;;31.10;62.70;;;;;;6133748;23;20124;-87
2021/09/13 10:03:30;;;;;;;;;;;31.50;60.70;;;;;;6132671;23;20041;-90
2021/09/13 10:06:31;;;;;;;3.33;2.08;;;31.60;58.30;;;;;;6136455;23;19916;-91
2021/09/13 10:09:29;;;;;;;3.58;2.55;;;31.50;58.10;;;;;;6133167;23;20025;-89
2021/09/13 10:12:17;;;;;;;4.22;2.35;;;31.60;55.90;;;;;;6135309;23;20077;-89
2021/09/13 10:15:21;;;;;;;2.65;2.40;;;31.80;56.00;;;;;;6135807;23;20022;-91
2021/09/13 10:18:08;;;;;;;4.18;2.35;;;31.30;58.80;;;;;;6154253;23;20040;-91
2021/09/13 10:20:58;;;;;;;6.10;2.50;;;31.00;58.90;;;;;;6134539;23;20052;-90
2021/09/13 10:23:48;;;;;;;3.38;2.90;;;32.00;58.10;;;;;;6132189;23;20076;-90
2021/09/13 10:26:48;;;;;;;3.80;2.63;;;31.60;56.90;;;;;;6152532;23;20025;-89
2021/09/13 10:29:38;;;;;;;2.85;2.38;;;32.30;57.10;;;;;;6153000;23;20105;-89
2021/09/13 10:32:30;;;;;;;4.05;2.28;;;33.40;55.40;;;;;;6152945;23;20128;-88
2021/09/13 10:35:19;;;;;;;3.92;2.95;;;33.20;53.30;;;;;;6153497;23;20084;-88
2021/09/13 10:38:09;;;;;;;3.05;2.70;;;31.50;55.80;;;;;;6150882;23;20650;-88
2021/09/13 10:40:56;;;;;;;3.67;3.03;;;30.40;58.30;;;;;;6103203;23;20393;-88
2021/09/13 10:44:33;;;;;;;3.60;3.25;;;29.70;61.60;;;;;;6125207;23;20053;-91
2021/09/13 10:47:30;;;;;;;4.20;2.90;;;29.80;60.00;;;;;;6096193;23;20089;-93
2021/09/13 10:54:17;;;;;;;4.22;3.03;;;29.80;60.50;;;;;;5982904;23;20148;-91
2021/09/13 10:58:00;;;;;;;5.10;2.67;;;29.30;62.20;;;;;;6002867;23;20168;-89
2021/09/13 11:00:55;;;;;;;;;;;29.20;61.40;;;;;;6125101;23;20030;-87
2021/09/13 11:08:56;;;;;;;5.28;3.05;;;29.60;61.10;;;;;;5994052;23;20023;-91
2021/09/13 11:11:58;;;;;;;3.92;2.85;;;31.10;61.10;;;;;;5999762;23;20030;-93
2021/09/13 11:15:37;;;;;;;2.78;2.55;;;32.80;55.80;;;;;;5941677;24;20390;-89
2021/09/13 11:18:38;;;;;;;3.45;2.83;;;32.10;52.90;;;;;;5909032;23;20115;-89
2021/09/13 11:21:32;;;;;;;2.65;2.40;;;30.40;55.50;;;;;;5988379;23;20027;-89
2021/09/13 11:24:23;;;;;;;2.55;2.28;;;29.00;58.70;;;;;;5988984;23;20032;-91
2021/09/13 11:28:19;;;;;;;3.03;2.22;;;28.40;61.20;;;;;;6007610;23;20027;-94
2021/09/13 11:31:33;;;;;;;3.08;2.72;;;28.10;58.10;;;;;;6002333;23;20379;-91
2021/09/13 11:34:43;;;;;;;3.95;2.55;;;27.40;60.60;;;;;;5989963;23;20024;-89
2021/09/13 11:37:33;;;;;;;2.95;2.35;;;26.70;64.60;;;;;;6019887;23;20059;-86
2021/09/13 11:40:45;;;;;;;3.00;2.70;;;26.20;67.00;;;;;;6023582;23;20074;-89
2021/09/13 11:48:04;;;;;;;2.95;2.30;;;26.50;71.20;;;;;;5824055;24;20030;-92
2021/09/13 11:51:09;;;;;;;4.40;2.20;;;28.60;65.30;;;;;;5887867;23;20033;-88
2021/09/13 11:54:11;;;;;;;3.70;2.15;;;30.70;59.40;;;;;;5989545;23;20028;-87
2021/09/13 11:58:00;;;;;;;;;;;;;;;;;;;;;
2021/09/13 12:01:01;;;;;;;3.80;1.75;;;33.50;47.70;;;;;;5971543;23;20038;-89
2021/09/13 12:04:20;;;;;;;2.15;1.73;;;33.60;50.90;;;;;;6003912;23;20028;-92
2021/09/13 12:16:54;;;;;;;;;;;;;;;;;;;;;
2021/09/13 12:32:51;;;;;;;2.08;1.88;;;35.50;42.40;;;;;;5794392;24;20023;-90
2021/09/13 12:35:52;;;;;;;2.22;1.75;;;35.50;45.10;;;;;;5990207;23;20051;-90
2021/09/13 12:38:45;;;;;;;2.20;2.00;;;35.90;44.30;;;;;;6073718;23;20116;-89
2021/09/13 12:41:41;;;;;;;2.00;1.65;;;35.50;43.20;;;;;;6120060;23;20030;-88
2021/09/13 12:45:00;;;;;;;2.25;1.80;;;36.10;40.60;;;;;;6155157;23;20034;-91
2021/09/13 12:47:58;;;;;;;2.17;1.77;;;35.90;42.20;;;;;;6155263;23;20029;-90
2021/09/13 12:50:55;;;;;;;2.05;1.85;;;35.50;42.90;;;;;;6159543;23;20122;-90
2021/09/13 12:54:09;;;;;;;1.75;1.65;;;35.80;41.90;;;;;;6160054;23;20032;-90
2021/09/13 13:02:09;;;;;;;3.55;1.90;;;37.50;39.40;;;;;;6162069;23;20013;-95
2021/09/13 13:05:00;;;;;;;2.03;1.83;;;37.70;36.70;;;;;;6125926;23;20436;-92
2021/09/13 13:08:00;;;;;;;;;;;;;;;;;;;;;
2021/09/13 13:10:51;;;;;;;3.17;2.20;;;33.20;44.30;;;;;;6155314;23;20089;-93
2021/09/13 13:13:44;;;;;;;1.92;1.73;;;33.40;46.30;;;;;;6154689;23;20025;-91
2021/09/13 13:16:36;;;;;;;3.05;2.15;;;33.90;44.20;;;;;;6155940;23;20025;-89
2021/09/13 13:19:28;;;;;;;2.47;1.80;;;35.10;40.80;;;;;;6144221;23;20300;-90
2021/09/13 13:22:53;;;;;;;2.95;1.80;;;35.40;43.20;;;;;;6129378;23;20017;-91
2021/09/13 13:26:05;;;;;;;3.38;2.10;;;36.50;39.50;;;;;;6171733;23;20034;-92
2021/09/13 13:29:26;;;;;;;;;;;;;;;;;;;;;
2021/09/13 13:32:34;;;;;;;2.53;1.92;;;35.00;40.30;;;;;;6057192;23;20031;-92
2021/09/13 13:35:49;;;;;;;;;;;;;;;;;;;;;
2021/09/13 13:38:51;;;;;;;2.00;1.80;;;35.00;42.90;;;;;;6165939;23;20096;-91
2021/09/13 13:41:41;;;;;;;2.75;1.70;;;35.10;43.20;;;;;;6148945;23;20022;-93
2021/09/13 13:45:33;;;;;;;1.70;1.60;;;35.60;38.40;;;;;;6100199;23;20121;-93
2021/09/13 13:48:43;;;;;;;3.37;1.70;;;35.60;38.50;;;;;;6112150;23;20037;-91
2021/09/13 13:51:40;;;;;;;2.72;1.52;;;35.60;37.90;;;;;;6101919;23;20026;-89
2021/09/13 13:54:42;;;;;;;2.47;1.70;;;35.90;40.40;;;;;;6085203;23;20100;-89
2021/09/13 13:57:29;;;;;;;2.08;1.70;;;36.30;40.30;;;;;;6134195;23;20041;-91
2021/09/13 14:15:36;;;;;;;;;;;;;;;;;;;;;
2021/09/13 14:18:35;;;;;;;2.38;1.98;;;32.50;44.90;;;;;;6014521;23;20103;-91
2021/09/13 14:24:59;;;;;;;2.30;2.10;;;31.70;44.50;;;;;;5933223;24;20038;-91
2021/09/13 14:28:20;;;;;;;;;;;;;;;;;;;;;
2021/09/13 14:36:55;;;;;;;3.05;1.85;;;31.60;46.50;;;;;;5875280;24;20022;-92
2021/09/13 14:49:32;;;;;;;2.75;1.75;;;31.60;45.00;;;;;;6015090;23;20018;-94
2021/09/13 14:56:13;;;;;;;2.35;2.00;;;30.50;48.50;;;;;;5924512;24;20112;-93
2021/09/13 14:59:02;;;;;;;2.42;2.10;;;29.50;51.50;;;;;;5952655;23;20024;-90
2021/09/13 15:01:50;;;;;;;3.75;1.95;;;28.60;52.80;;;;;;6035545;23;20549;-90
2021/09/13 15:04:38;;;;;;;2.55;2.35;;;27.70;54.70;;;;;;6038756;23;20110;-91
2021/09/13 15:07:28;;;;;;;2.95;2.53;;;27.10;56.50;;;;;;6038343;23;20196;-92
2021/09/13 15:10:16;;;;;;;4.05;2.20;;;26.80;58.10;;;;;;6091350;23;20029;-92
2021/09/13 15:13:06;;;;;;;2.70;2.50;;;26.40;58.20;;;;;;6139138;23;20026;-92
2021/09/13 15:15:53;;;;;;;2.92;2.20;;;26.10;59.20;;;;;;6161295;23;20096;-91
2021/09/13 15:18:44;;;;;;;2.30;2.10;;;25.80;58.90;;;;;;6138659;23;20057;-92
2021/09/13 15:21:42;;;;;;;4.45;2.25;;;25.60;60.10;;;;;;6114353;23;20389;-91
2021/09/13 15:24:40;;;;;;;4.07;2.25;;;25.30;60.70;;;;;;6157547;23;20048;-92
2021/09/13 15:33:01;;;;;;;;;;;;;;;;;;;;;
2021/09/13 16:18:48;;;;;;;;;;;;;;;;;;;;;
2021/09/13 16:21:41;;;;;;;4.18;2.72;;;23.60;79.90;;;;;;6222164;23;20028;-90
2021/09/13 16:24:36;;;;;;;5.15;2.72;;;23.60;79.10;;;;;;6200537;23;20028;-90
2021/09/13 16:27:28;;;;;;;3.17;2.70;;;23.70;79.20;;;;;;6181459;23;20447;-91
2021/09/13 16:35:38;;;;;;;4.38;3.10;;;23.70;77.80;;;;;;6128781;23;20117;-92
2021/09/13 16:39:27;;;;;;;4.57;3.00;;;23.40;79.60;;;;;;6147718;23;20035;-92
2021/09/13 16:51:13;;;;;;;5.82;3.30;;;23.20;83.20;;;;;;6184560;23;20085;-92
2021/09/13 16:54:08;;;;;;;4.78;2.92;;;22.90;85.30;;;;;;6138279;23;20049;-91
2021/09/13 16:57:09;;;;;;;6.10;3.40;;;22.80;86.00;;;;;;6190881;23;20029;-91
2021/09/13 17:01:06;;;;;;;;;;;;;;;;;;;;;
2021/09/13 17:04:16;;;;;;;4.25;3.13;;;22.60;85.40;;;;;;6179556;23;20029;-92
2021/09/13 17:07:08;;;;;;;6.82;3.50;;;22.50;87.20;;;;;;6171627;23;20020;-90
2021/09/13 17:09:55;;;;;;;4.10;3.30;;;22.50;87.70;;;;;;6192093;23;20382;-90
2021/09/13 17:12:42;;;;;;;5.93;4.50;;;22.30;88.60;;;;;;6181117;23;20207;-91
2021/09/13 17:15:35;;;;;;;5.75;4.00;;;22.20;90.20;;;;;;6201610;23;20040;-91
2021/09/13 17:18:22;;;;;;;4.88;3.47;;;22.00;90.70;;;;;;6175689;23;20394;-91
2021/09/13 17:21:35;;;;;;;3.15;2.85;;;21.80;90.40;;;;;;6197208;23;20056;-91
2021/09/13 17:24:31;;;;;;;4.07;2.90;;;21.60;91.10;;;;;;6196736;23;20039;-91
2021/09/13 17:27:26;;;;;;;4.85;3.40;;;21.50;90.60;;;;;;6218033;23;20036;-93
2021/09/13 17:30:22;;;;;;;4.03;3.10;;;21.40;90.90;;;;;;6194086;23;20072;-89
2021/09/13 17:33:24;;;;;;;3.90;3.20;;;21.40;91.00;;;;;;6194838;23;20020;-91
2021/09/13 17:36:55;;;;;;;4.50;2.90;;;21.20;91.20;;;;;;6217946;23;20032;-91
2021/09/13 17:39:28;;;;;;;4.88;2.92;;;21.20;91.80;;;;;;6215758;23;20087;-91
2021/09/13 17:42:18;;;;;;;7.53;3.20;;;21.00;93.10;;;;;;6216893;23;20505;-91
2021/09/13 17:45:09;;;;;;;5.20;3.33;;;20.90;94.60;;;;;;6174069;23;20646;-90
2021/09/13 17:47:58;;;;;;;8.10;3.55;;;20.60;96.30;;;;;;6192717;23;20029;-90
2021/09/13 17:50:47;;;;;;;4.43;2.97;;;20.50;96.90;;;;;;6153405;23;20028;-91
2021/09/13 17:53:37;;;;;;;5.38;3.33;;;20.30;98.30;;;;;;6195023;23;20051;-91
2021/09/13 17:56:29;;;;;;;5.00;3.67;;;20.00;99.90;;;;;;6174250;23;20043;-90
2021/09/13 17:59:19;;;;;;;3.90;3.20;;;19.80;99.90;;;;;;6203543;23;20024;-91
2021/09/13 18:02:07;;;;;;;5.97;3.78;;;19.60;99.90;;;;;;6206368;23;20094;-91
2021/09/13 18:04:54;;;;;;;4.45;3.67;;;19.40;99.90;;;;;;6187541;23;20036;-90
2021/09/13 18:08:01;;;;;;;;;;;;;;;;;;;;;
2021/09/13 18:12:15;;;;;;;;;;;;;;;;;;;;;
2021/09/13 18:19:23;;;;;;;6.07;4.40;;;18.90;99.90;;;;;;6053209;23;20051;-93
2021/09/13 18:22:15;;;;;;;4.28;3.60;;;18.70;99.90;;;;;;6055743;23;20026;-90
2021/09/13 18:25:28;;;;;;;;;;;;;;;;;;;;;
2021/09/13 18:28:22;;;;;;;4.82;3.85;;;18.60;99.90;;;;;;6056741;23;20023;-91
2021/09/13 18:31:16;;;;;;;4.47;3.90;;;18.50;99.90;;;;;;6059388;23;20050;-91
2021/09/13 18:34:27;;;;;;;7.38;4.30;;;18.50;99.90;;;;;;6203911;23;20113;-92
2021/09/13 18:37:49;;;;;;;;;;;;;;;;;;;;;